Time;durP1;ratioP1;P1;durP2;ratioP2;P2;SDS_P1;SDS_P2;PMS_P1;PMS_P2;Temp;Humidity;BMP_temperature;BMP_pressure;BME280_temperature;BME280_humidity;BME280_pressure;Samples;Min_cycle;Max_cycle;Signal;HPM_P1;HPM_P2
2022/05/03 00:01:08;;;;;;;117.30;65.10;;;;;;;11.51;58.32;98505.46;107987;1277;23163;-70
2022/05/03 00:03:49;;;;;;;109.10;64.70;;;;;;;11.48;58.14;98502.90;108022;1277;22531;-70
2022/05/03 00:06:28;;;;;;;105.70;59.90;;;;;;;11.45;58.36;98501.73;107998;1277;22614;-70
2022/05/03 00:09:03;;;;;;;90.70;52.40;;;;;;;11.44;58.48;98498.86;108064;1277;25657;-69
2022/05/03 00:11:45;;;;;;;89.70;52.60;;;;;;;11.46;58.81;98500.08;108045;1277;22710;-69
2022/05/03 00:14:41;;;;;;;125.00;70.60;;;;;;;11.46;59.26;98496.61;108006;1277;22617;-69
2022/05/03 00:17:08;;;;;;;96.00;57.00;;;;;;;11.39;60.09;98499.19;107880;1277;22803;-72
2022/05/03 00:19:35;;;;;;;89.40;55.10;;;;;;;11.36;60.18;98499.45;107993;1277;22541;-70
2022/05/03 00:22:02;;;;;;;84.60;51.40;;;;;;;11.34;59.56;98499.04;108032;1280;23213;-70
2022/05/03 00:24:30;;;;;;;81.10;48.70;;;;;;;11.31;59.64;98493.10;108272;1274;22543;-70
2022/05/03 00:26:57;;;;;;;75.80;46.90;;;;;;;11.30;59.68;98492.48;108658;1274;22582;-71
2022/05/03 00:29:26;;;;;;;77.70;45.80;;;;;;;11.28;59.75;98493.30;108304;1271;24084;-72
2022/05/03 00:31:53;;;;;;;83.80;46.70;;;;;;;11.27;59.76;98492.20;108338;1274;23034;-70
2022/05/03 00:34:22;;;;;;;90.20;51.60;;;;;;;11.25;59.73;98493.55;108314;1274;22532;-75
2022/05/03 00:36:49;;;;;;;80.40;46.40;;;;;;;11.24;59.80;98491.16;108684;1272;22581;-70
2022/05/03 00:39:15;;;;;;;65.60;40.60;;;;;;;11.27;60.13;98493.72;108314;1274;22657;-70
2022/05/03 00:42:08;;;;;;;71.90;41.80;;;;;;;11.28;60.57;98494.34;108314;1274;25308;-73
2022/05/03 00:47:54;;;;;;;78.10;45.00;;;;;;;11.21;61.19;98498.16;108426;1274;22801;-71
2022/05/03 00:50:53;;;;;;;77.40;45.70;;;;;;;11.17;60.83;98499.14;108446;1273;22544;-71
2022/05/03 00:53:32;;;;;;;79.80;47.90;;;;;;;11.10;61.06;98501.76;108000;1277;22790;-71
2022/05/03 00:56:29;;;;;;;76.90;47.50;;;;;;;10.96;61.59;98507.96;107995;1277;22529;-71
2022/05/03 00:59:14;;;;;;;85.20;50.40;;;;;;;10.80;62.57;98505.38;107988;1277;22483;-71
2022/05/03 01:01:49;;;;;;;69.20;44.50;;;;;;;10.75;61.98;98500.81;108017;1277;22540;-70
2022/05/03 01:04:44;;;;;;;75.40;45.30;;;;;;;10.78;62.32;98498.40;107987;1277;22563;-70
2022/05/03 01:07:29;;;;;;;72.40;44.60;;;;;;;10.79;63.03;98498.33;107984;1277;22576;-70
2022/05/03 01:09:59;;;;;;;81.90;48.60;;;;;;;10.79;63.51;98499.02;107977;1277;24328;-70
2022/05/03 01:12:48;;;;;;;76.00;49.30;;;;;;;10.75;63.43;98500.17;108002;1277;22615;-71
2022/05/03 01:15:20;;;;;;;84.20;50.00;;;;;;;10.69;63.51;98501.64;107985;1277;23840;-73
2022/05/03 01:18:15;;;;;;;85.70;50.60;;;;;;;10.63;63.46;98505.50;107995;1277;24494;-70
2022/05/03 01:21:03;;;;;;;82.20;50.30;;;;;;;10.60;63.39;98508.81;107947;1277;26212;-70
2022/05/03 01:23:52;;;;;;;81.60;50.90;;;;;;;10.58;63.53;98510.34;108009;1277;25398;-70
2022/05/03 01:26:37;;;;;;;69.10;43.70;;;;;;;10.54;63.91;98509.95;108034;1277;22565;-70
2022/05/03 01:29:25;;;;;;;78.00;47.10;;;;;;;10.51;64.28;98512.21;108095;1274;22604;-80
2022/05/03 01:31:57;;;;;;;72.40;47.80;;;;;;;10.50;65.46;98521.02;108335;1274;22673;-70
2022/05/03 01:34:26;;;;;;;82.20;49.10;;;;;;;10.45;66.17;98519.79;108340;1274;22518;-70
2022/05/03 01:37:05;;;;;;;82.50;52.10;;;;;;;10.41;66.22;98518.48;108340;1274;22640;-70
2022/05/03 01:40:04;;;;;;;83.20;51.80;;;;;;;10.38;66.29;98517.45;108354;1274;25561;-71
2022/05/03 01:43:02;;;;;;;83.00;51.30;;;;;;;10.37;66.07;98514.39;108321;1274;22565;-70
2022/05/03 01:45:41;;;;;;;82.60;52.50;;;;;;;10.39;65.56;98510.25;108312;1274;25276;-71
2022/05/03 01:52:13;;;;;;;73.40;44.80;;;;;;;10.51;65.47;98505.77;108314;1274;22499;-71
2022/05/03 01:55:05;;;;;;;80.70;47.50;;;;;;;10.54;66.12;98502.27;107978;1277;22534;-70
2022/05/03 01:57:32;;;;;;;83.80;51.10;;;;;;;10.51;66.05;98502.48;107997;1277;24580;-70
2022/05/03 02:00:06;;;;;;;76.00;47.70;;;;;;;10.48;66.15;98496.93;108058;1277;26196;-70
2022/05/03 02:02:56;;;;;;;75.30;48.90;;;;;;;10.47;65.90;98493.02;108010;1277;25622;-72
2022/05/03 02:05:52;;;;;;;96.20;54.90;;;;;;;10.44;65.66;98489.69;108008;1277;23061;-70
2022/05/03 02:08:24;;;;;;;82.60;50.70;;;;;;;10.40;65.36;98485.92;108092;1277;22710;-70
2022/05/03 02:11:09;;;;;;;56.70;37.40;;;;;;;10.37;65.34;98481.67;107983;1280;22546;-70
2022/05/03 02:16:47;;;;;;;75.30;43.90;;;;;;;10.32;65.77;98483.59;108023;1277;22553;-70
2022/05/03 02:19:33;;;;;;;76.20;45.90;;;;;;;10.27;66.19;98484.95;108008;1277;25394;-71
2022/05/03 02:22:08;;;;;;;77.40;47.10;;;;;;;10.22;66.03;98485.27;108063;1277;22764;-70
2022/05/03 02:25:14;;;;;;;69.70;45.10;;;;;;;10.17;66.29;98484.23;108084;1277;22540;-70
2022/05/03 02:27:48;;;;;;;82.10;46.80;;;;;;;10.11;65.75;98484.90;108101;1277;22602;-72
2022/05/03 02:30:18;;;;;;;64.90;40.00;;;;;;;10.07;65.68;98490.58;108066;1277;24204;-70
2022/05/03 02:32:57;;;;;;;66.30;38.00;;;;;;;10.04;65.96;98492.68;108278;1270;22527;-70
2022/05/03 02:35:31;;;;;;;61.90;38.90;;;;;;;9.99;67.24;98492.84;108332;1271;22555;-71
2022/05/03 02:38:03;;;;;;;69.90;42.80;;;;;;;9.98;66.78;98491.17;108374;1271;22600;-76
2022/05/03 02:40:31;;;;;;;70.20;43.80;;;;;;;9.94;66.99;98495.20;108394;1271;22653;-71
2022/05/03 02:42:59;;;;;;;68.80;43.60;;;;;;;9.89;66.95;98494.86;108476;1271;22610;-71
2022/05/03 02:45:32;;;;;;;72.60;45.70;;;;;;;9.86;66.44;98492.13;108569;1271;22550;-71
2022/05/03 02:48:23;;;;;;;71.30;43.90;;;;;;;9.85;66.46;98491.66;108579;1270;22610;-71
2022/05/03 02:51:19;;;;;;;69.50;43.40;;;;;;;9.84;66.82;98492.09;108557;1270;22645;-71
2022/05/03 02:54:01;;;;;;;61.80;38.70;;;;;;;9.85;66.48;98489.41;108249;1271;384421;-78
2022/05/03 02:56:51;;;;;;;58.60;35.80;;;;;;;9.91;66.31;98492.88;108551;1270;22560;-70
2022/05/03 03:02:52;;;;;;;69.50;41.70;;;;;;;9.92;66.87;98492.26;108578;1271;22460;-72
2022/05/03 03:05:23;;;;;;;70.60;43.20;;;;;;;9.90;68.08;98495.02;108531;1270;22550;-82
2022/05/03 03:07:56;;;;;;;71.30;47.30;;;;;;;9.88;66.97;98491.80;108572;1271;22688;-76
2022/05/03 03:10:30;;;;;;;;;;;;;;;9.87;66.96;98493.30;108616;1271;22509;-75
2022/05/03 03:13:10;;;;;;;63.50;41.10;;;;;;;9.87;67.08;98492.42;108601;1270;22625;-74
2022/05/03 03:15:40;;;;;;;63.60;40.80;;;;;;;9.87;67.35;98488.94;108604;1271;22544;-81
2022/05/03 03:18:15;;;;;;;68.90;44.90;;;;;;;9.86;68.02;98486.54;108600;1271;22646;-75
2022/05/03 03:20:46;;;;;;;68.40;45.00;;;;;;;9.85;67.79;98488.18;108543;1274;22531;-76
2022/05/03 03:23:15;;;;;;;73.70;45.40;;;;;;;9.84;67.75;98493.80;108512;1271;22527;-75
2022/05/03 03:25:43;;;;;;;74.60;47.50;;;;;;;9.79;68.42;98504.77;108599;1271;22550;-78
2022/05/03 03:28:12;;;;;;;70.20;44.10;;;;;;;9.66;68.79;98499.63;108531;1270;22534;-72
2022/05/03 03:30:44;;;;;;;65.80;40.40;;;;;;;9.64;68.78;98490.95;108519;1271;22617;-77
2022/05/03 03:33:12;;;;;;;62.10;40.80;;;;;;;9.61;69.21;98489.40;108563;1271;22615;-73
2022/05/03 03:35:41;;;;;;;67.30;42.80;;;;;;;9.58;69.46;98495.80;108539;1271;22542;-74
2022/05/03 03:38:12;;;;;;;68.40;45.70;;;;;;;9.54;69.66;98492.10;108539;1271;22566;-79
2022/05/03 03:40:40;;;;;;;81.50;48.80;;;;;;;9.51;69.77;98491.77;108427;1270;23171;-75
2022/05/03 03:43:07;;;;;;;78.60;49.90;;;;;;;9.49;69.47;98490.52;108352;1271;22608;-71
2022/05/03 03:45:34;;;;;;;100.30;55.00;;;;;;;9.48;69.17;98489.16;108383;1268;24288;-72
2022/05/03 03:48:01;;;;;;;107.30;52.10;;;;;;;9.49;69.06;98487.04;108350;1271;22557;-70
2022/05/03 03:50:30;;;;;;;92.50;47.00;;;;;;;9.54;69.20;98488.43;108366;1271;22550;-77
2022/05/03 03:52:58;;;;;;;88.10;44.90;;;;;;;9.62;69.61;98486.73;108378;1271;22747;-71
2022/05/03 03:55:27;;;;;;;71.00;41.90;;;;;;;9.66;70.57;98489.90;108412;1271;22684;-71
2022/05/03 03:57:56;;;;;;;64.70;41.50;;;;;;;9.69;70.27;98488.14;108338;1271;22607;-77
2022/05/03 04:00:24;;;;;;;67.90;43.00;;;;;;;9.73;69.88;98489.46;108360;1271;22653;-78
2022/05/03 04:02:51;;;;;;;65.90;43.80;;;;;;;9.79;69.58;98489.10;108359;1271;26128;-70
2022/05/03 04:05:23;;;;;;;80.70;46.40;;;;;;;9.85;69.28;98488.90;108335;1271;24215;-72
2022/05/03 04:07:51;;;;;;;70.90;45.00;;;;;;;9.90;69.42;98487.84;108334;1271;22705;-70
2022/05/03 04:10:19;;;;;;;70.70;41.00;;;;;;;9.96;68.85;98490.59;108359;1271;22671;-70
2022/05/03 04:12:47;;;;;;;59.50;38.60;;;;;;;10.06;68.87;98489.21;108423;1271;22561;-71
2022/05/03 04:15:14;;;;;;;58.80;39.00;;;;;;;10.16;69.37;98492.23;108331;1271;25344;-71
2022/05/03 04:17:43;;;;;;;67.90;40.80;;;;;;;10.22;69.61;98494.82;108333;1271;22570;-71
2022/05/03 04:20:15;;;;;;;59.30;41.60;;;;;;;10.27;69.30;98492.80;108312;1271;22548;-71
2022/05/03 04:22:42;;;;;;;70.10;44.10;;;;;;;10.29;69.30;98493.81;108317;1271;22537;-71
2022/05/03 04:25:10;;;;;;;71.70;43.70;;;;;;;10.33;68.77;98494.14;108353;1271;22538;-70
2022/05/03 04:27:37;;;;;;;66.40;42.90;;;;;;;10.35;68.46;98488.43;108338;1271;22525;-72
2022/05/03 04:30:05;;;;;;;69.80;42.70;;;;;;;10.36;68.16;98494.30;108355;1271;22695;-70
2022/05/03 04:32:33;;;;;;;68.60;44.10;;;;;;;10.36;68.18;98498.45;108378;1271;22608;-73
2022/05/03 04:35:00;;;;;;;54.90;37.60;;;;;;;10.36;67.88;98502.77;108341;1271;22609;-70
2022/05/03 04:37:28;;;;;;;56.10;35.60;;;;;;;10.36;68.35;98501.58;108366;1271;22849;-71
2022/05/03 04:39:55;;;;;;;63.40;38.60;;;;;;;10.32;68.61;98502.70;108299;1271;22584;-70
2022/05/03 04:42:22;;;;;;;58.40;40.60;;;;;;;10.30;69.00;98504.77;108339;1271;22570;-73
2022/05/03 04:44:49;;;;;;;67.20;42.40;;;;;;;10.30;69.12;98508.05;108343;1271;22541;-70
2022/05/03 04:47:16;;;;;;;64.10;43.70;;;;;;;10.34;69.00;98510.77;108401;1271;22565;-74
2022/05/03 04:49:43;;;;;;;66.60;43.80;;;;;;;10.38;69.15;98518.13;108331;1271;25309;-70
2022/05/03 04:52:10;;;;;;;79.40;54.20;;;;;;;10.50;69.22;98518.55;108333;1269;22648;-76
2022/05/03 04:54:38;;;;;;;75.00;51.40;;;;;;;10.70;69.29;98517.88;108342;1271;23048;-70
2022/05/03 04:57:07;;;;;;;74.80;49.60;;;;;;;11.00;69.46;98515.66;108378;1270;22541;-72
2022/05/03 04:59:36;;;;;;;72.70;51.20;;;;;;;11.30;69.72;98517.65;108335;1271;22889;-81
2022/05/03 05:02:04;;;;;;;66.30;45.20;;;;;;;11.54;69.26;98514.13;108342;1270;22537;-70
2022/05/03 05:04:31;;;;;;;65.30;44.10;;;;;;;11.77;68.69;98516.22;108350;1271;22525;-80
2022/05/03 05:06:58;;;;;;;65.50;43.50;;;;;;;12.02;67.89;98517.17;108334;1271;25236;-71
2022/05/03 05:09:24;;;;;;;57.30;41.60;;;;;;;12.29;67.35;98517.64;108342;1271;22599;-71
2022/05/03 05:11:52;;;;;;;54.00;39.10;;;;;;;12.57;66.65;98522.16;108365;1271;23104;-70
2022/05/03 05:14:20;;;;;;;49.20;34.30;;;;;;;12.84;64.03;98519.91;108345;1271;22557;-71
2022/05/03 05:16:49;;;;;;;56.50;37.10;;;;;;;13.05;64.58;98523.68;108324;1271;24346;-71
2022/05/03 05:19:16;;;;;;;48.70;36.00;;;;;;;13.24;63.50;98527.20;108318;1271;22597;-78
2022/05/03 05:21:44;;;;;;;52.50;37.40;;;;;;;13.43;62.97;98528.50;108372;1271;22619;-70
2022/05/03 05:24:11;;;;;;;48.80;35.00;;;;;;;13.61;62.59;98523.77;108389;1271;22776;-71
2022/05/03 05:26:39;;;;;;;50.50;37.00;;;;;;;13.76;61.92;98524.10;108356;1271;25682;-70
2022/05/03 05:29:06;;;;;;;60.90;43.60;;;;;;;13.84;61.40;98529.27;108321;1271;22669;-71
2022/05/03 05:31:34;;;;;;;57.80;43.00;;;;;;;13.79;61.34;98539.85;108348;1271;27683;-77
2022/05/03 05:34:02;;;;;;;57.70;41.10;;;;;;;13.71;61.18;98539.90;108341;1271;24491;-71
2022/05/03 05:36:29;;;;;;;62.80;43.60;;;;;;;13.70;61.28;98540.35;108328;1271;22549;-70
2022/05/03 05:38:56;;;;;;;59.40;43.30;;;;;;;13.76;60.98;98536.89;108353;1271;24041;-70
2022/05/03 05:41:23;;;;;;;61.10;45.80;;;;;;;13.86;60.68;98534.02;108342;1270;22692;-70
2022/05/03 05:43:50;;;;;;;59.50;42.50;;;;;;;13.97;60.68;98529.45;108349;1271;22604;-71
2022/05/03 05:46:17;;;;;;;52.90;41.20;;;;;;;14.12;60.21;98533.67;108374;1271;22539;-72
2022/05/03 05:48:45;;;;;;;53.10;40.90;;;;;;;14.26;60.02;98534.92;108293;1271;23829;-73
2022/05/03 05:51:14;;;;;;;60.10;42.40;;;;;;;14.44;59.66;98532.66;108336;1270;24390;-71
2022/05/03 05:53:42;;;;;;;51.70;40.20;;;;;;;14.60;59.33;98532.87;108291;1268;22547;-71
2022/05/03 05:56:09;;;;;;;54.20;40.80;;;;;;;14.74;59.09;98529.61;108358;1271;22604;-71
2022/05/03 05:58:37;;;;;;;49.70;38.90;;;;;;;14.87;59.13;98529.93;108331;1271;22556;-71
2022/05/03 06:01:04;;;;;;;45.60;34.90;;;;;;;15.01;58.96;98532.39;108365;1271;22549;-77
2022/05/03 06:03:34;;;;;;;49.50;35.80;;;;;;;15.11;58.25;98532.75;108333;1271;22729;-71
2022/05/03 06:06:01;;;;;;;45.20;34.00;;;;;;;15.24;57.67;98532.14;108336;1271;22687;-72
2022/05/03 06:08:28;;;;;;;42.30;29.00;;;;;;;15.35;56.81;98534.34;108351;1271;22605;-72
2022/05/03 06:10:58;;;;;;;33.30;24.90;;;;;;;15.45;56.03;98535.99;108350;1271;22609;-77
2022/05/03 06:13:25;;;;;;;34.20;25.70;;;;;;;15.55;53.76;98530.17;108367;1271;22567;-73
2022/05/03 06:15:54;;;;;;;38.60;29.60;;;;;;;15.69;53.43;98530.52;108332;1271;24288;-71
2022/05/03 06:18:22;;;;;;;40.40;30.50;;;;;;;15.85;53.92;98531.11;108330;1271;22549;-71
2022/05/03 06:20:50;;;;;;;42.60;31.90;;;;;;;15.99;53.16;98537.92;108307;1274;22651;-77
2022/05/03 06:23:17;;;;;;;42.90;32.20;;;;;;;16.15;53.14;98537.56;108347;1271;23311;-71
2022/05/03 06:25:45;;;;;;;43.20;33.50;;;;;;;16.33;52.52;98539.11;108348;1271;22951;-71
2022/05/03 06:28:12;;;;;;;44.70;33.90;;;;;;;16.41;50.94;98540.41;108345;1271;22676;-72
2022/05/03 06:30:40;;;;;;;44.30;32.10;;;;;;;16.48;50.64;98541.05;108297;1271;22672;-73
2022/05/03 06:33:08;;;;;;;38.80;30.70;;;;;;;16.52;51.16;98535.90;108366;1271;24252;-70
2022/05/03 06:35:35;;;;;;;40.70;31.00;;;;;;;16.51;50.61;98531.60;108360;1271;22624;-79
2022/05/03 06:38:02;;;;;;;43.40;31.00;;;;;;;16.42;49.57;98529.05;108349;1270;22713;-72
2022/05/03 06:40:29;;;;;;;44.30;31.50;;;;;;;16.33;49.73;98531.84;108321;1271;26245;-70
2022/05/03 06:42:56;;;;;;;40.30;30.40;;;;;;;16.23;49.80;98534.20;108343;1271;26685;-72
2022/05/03 06:45:23;;;;;;;41.00;31.80;;;;;;;16.19;49.71;98533.89;108340;1271;22522;-72
2022/05/03 06:47:51;;;;;;;44.00;32.50;;;;;;;16.22;49.68;98538.82;108349;1271;22569;-77
2022/05/03 06:50:18;;;;;;;50.20;33.20;;;;;;;16.29;49.14;98539.91;108327;1271;22525;-77
2022/05/03 06:52:45;;;;;;;42.90;33.60;;;;;;;16.37;48.79;98539.59;108341;1271;22554;-71
2022/05/03 06:55:12;;;;;;;44.80;34.10;;;;;;;16.45;48.26;98538.84;108363;1271;22535;-72
2022/05/03 06:57:39;;;;;;;48.30;34.30;;;;;;;16.54;47.88;98537.17;108378;1271;22533;-73
2022/05/03 07:00:08;;;;;;;46.20;34.40;;;;;;;16.71;47.47;98535.73;108301;1271;22523;-70
2022/05/03 07:02:36;;;;;;;45.80;33.70;;;;;;;16.91;47.08;98536.96;108329;1271;23956;-73
2022/05/03 07:05:04;;;;;;;44.50;33.10;;;;;;;17.07;46.96;98538.44;108398;1270;22547;-71
2022/05/03 07:07:31;;;;;;;43.50;31.90;;;;;;;17.15;45.34;98532.92;108364;1271;22654;-71
2022/05/03 07:09:59;;;;;;;46.80;33.90;;;;;;;17.25;46.08;98539.65;108401;1271;22549;-70
2022/05/03 07:12:28;;;;;;;49.00;34.70;;;;;;;17.39;45.74;98541.92;108726;1271;22536;-69
2022/05/03 07:14:59;;;;;;;44.00;31.20;;;;;;;17.55;45.72;98544.28;108382;1271;22712;-75
2022/05/03 07:22:58;;;;;;;30.80;23.40;;;;;;;18.06;45.34;98540.78;108378;1271;22561;-72
2022/05/03 07:25:26;;;;;;;29.50;22.40;;;;;;;18.19;45.15;98541.36;108382;1271;22568;-71
2022/05/03 07:27:53;;;;;;;31.30;21.00;;;;;;;18.29;44.26;98538.62;108331;1271;23349;-71
2022/05/03 07:30:21;;;;;;;27.60;20.50;;;;;;;18.39;43.75;98541.35;108361;1271;22547;-82
2022/05/03 07:32:48;;;;;;;27.20;22.00;;;;;;;18.54;42.72;98542.58;108431;1271;25323;-72
2022/05/03 07:35:15;;;;;;;26.80;21.30;;;;;;;18.64;42.20;98543.30;108341;1271;22612;-70
2022/05/03 07:37:43;;;;;;;31.30;22.60;;;;;;;18.78;42.92;98545.23;108364;1271;24218;-72
2022/05/03 07:40:11;;;;;;;31.00;23.60;;;;;;;18.88;42.49;98543.22;108303;1271;25336;-72
2022/05/03 07:42:39;;;;;;;29.20;22.20;;;;;;;19.00;42.11;98545.32;108341;1271;22696;-70
2022/05/03 07:45:06;;;;;;;28.40;21.00;;;;;;;19.06;41.36;98545.23;108382;1271;22681;-71
2022/05/03 07:47:34;;;;;;;25.10;18.60;;;;;;;19.18;42.02;98543.48;108700;1271;22525;-71
2022/05/03 07:50:02;;;;;;;22.30;19.20;;;;;;;19.27;41.82;98548.97;108544;1271;22703;-76
2022/05/03 07:52:29;;;;;;;31.20;22.40;;;;;;;19.35;41.41;98547.56;108307;1271;22642;-72
2022/05/03 07:54:57;;;;;;;28.00;21.90;;;;;;;19.39;40.98;98548.73;108332;1271;22566;-73
2022/05/03 07:57:24;;;;;;;35.20;22.40;;;;;;;19.50;41.02;98547.77;108340;1271;26629;-76
2022/05/03 07:59:54;;;;;;;27.40;20.60;;;;;;;19.58;39.95;98549.98;108305;1271;22609;-74
2022/05/03 08:02:23;;;;;;;27.90;21.70;;;;;;;19.70;39.88;98554.00;108333;1271;22652;-71
2022/05/03 08:04:54;;;;;;;21.20;16.90;;;;;;;19.81;39.66;98549.02;108314;1271;22594;-71
2022/05/03 08:07:22;;;;;;;20.60;13.70;;;;;;;20.01;39.15;98555.23;108349;1271;22621;-71
2022/05/03 08:09:49;;;;;;;15.70;10.90;;;;;;;20.26;39.02;98559.13;108343;1271;22539;-71
2022/05/03 08:12:17;;;;;;;11.90;9.20;;;;;;;20.48;38.31;98555.48;108337;1271;23129;-71
2022/05/03 08:14:44;;;;;;;13.00;10.20;;;;;;;20.65;37.19;98557.58;108381;1271;22542;-70
2022/05/03 08:17:12;;;;;;;16.90;11.40;;;;;;;20.75;36.64;98556.84;108335;1271;22533;-71
2022/05/03 08:19:40;;;;;;;20.90;14.50;;;;;;;20.84;36.90;98556.55;108331;1271;22604;-71
2022/05/03 08:22:07;;;;;;;24.90;19.20;;;;;;;21.05;37.04;98557.11;108318;1271;23222;-71
2022/05/03 08:24:34;;;;;;;20.50;15.70;;;;;;;21.10;36.93;98561.46;108347;1271;22705;-73
2022/05/03 08:27:02;;;;;;;19.90;14.20;;;;;;;21.19;37.03;98561.98;108330;1268;22607;-76
2022/05/03 08:29:31;;;;;;;24.10;18.70;;;;;;;21.33;36.45;98567.00;108322;1271;24289;-71
2022/05/03 08:31:59;;;;;;;23.40;17.10;;;;;;;21.48;36.16;98569.67;108363;1269;22545;-73
2022/05/03 08:34:27;;;;;;;25.00;18.30;;;;;;;21.60;36.38;98569.18;108380;1271;24230;-73
2022/05/03 08:42:25;;;;;;;21.60;16.70;;;;;;;21.68;35.70;98574.00;108353;1271;22563;-70
2022/05/03 08:44:52;;;;;;;18.30;15.60;;;;;;;21.53;35.93;98573.25;108365;1271;22568;-73
2022/05/03 08:47:20;;;;;;;30.70;20.30;;;;;;;21.46;35.09;98571.87;108330;1271;23083;-73
2022/05/03 08:49:53;;;;;;;27.00;18.30;;;;;;;21.32;35.16;98571.41;108369;1271;22540;-75
2022/05/03 08:52:22;;;;;;;23.70;16.70;;;;;;;21.19;34.92;98570.23;108340;1271;22535;-79
2022/05/03 08:54:56;;;;;;;22.30;17.10;;;;;;;21.15;34.81;98571.05;108382;1271;22550;-73
2022/05/03 08:57:23;;;;;;;20.20;14.50;;;;;;;21.12;34.88;98567.42;108381;1271;24086;-74
2022/05/03 08:59:52;;;;;;;21.20;14.30;;;;;;;21.03;34.51;98568.87;108338;1271;22531;-70
2022/05/03 09:02:19;;;;;;;19.70;15.00;;;;;;;20.99;35.00;98569.61;108342;1271;22522;-75
2022/05/03 09:04:47;;;;;;;17.20;12.20;;;;;;;20.99;34.92;98570.00;108327;1271;22712;-73
2022/05/03 09:07:19;;;;;;;16.90;13.40;;;;;;;20.93;34.55;98569.33;108344;1271;23023;-70
2022/05/03 09:09:48;;;;;;;20.00;15.10;;;;;;;20.81;34.73;98565.55;108389;1271;22643;-70
2022/05/03 09:12:30;;;;;;;17.70;12.20;;;;;;;20.83;34.83;98564.14;108345;1271;22552;-72
2022/05/03 09:15:00;;;;;;;16.70;12.20;;;;;;;20.96;35.06;98568.67;108354;1271;22614;-73
2022/05/03 09:17:34;;;;;;;15.60;11.20;;;;;;;21.08;34.66;98566.70;108350;1271;23385;-70
2022/05/03 09:23:46;;;;;;;14.00;10.30;;;;;;;21.19;34.21;98565.52;108339;1271;22698;-75
2022/05/03 09:25:48;;;;;;;15.60;10.40;;;;;;;21.52;33.14;98568.77;108370;1271;22668;-74
2022/05/03 09:28:15;;;;;;;14.60;11.00;;;;;;;21.61;33.17;98566.45;108512;1271;23128;-83
2022/05/03 09:30:47;;;;;;;12.50;9.10;;;;;;;21.68;32.87;98563.54;108518;1271;22724;-75
2022/05/03 09:33:16;;;;;;;14.30;8.80;;;;;;;21.75;32.77;98562.39;108458;1271;22866;-77
2022/05/03 09:35:43;;;;;;;11.80;8.30;;;;;;;21.76;33.25;98562.48;108539;1271;22552;-77
2022/05/03 09:38:10;;;;;;;14.40;9.00;;;;;;;21.71;33.40;98561.98;108544;1271;22509;-75
2022/05/03 09:40:42;;;;;;;13.90;8.70;;;;;;;21.81;33.20;98562.46;108517;1271;22543;-74
2022/05/03 09:43:11;;;;;;;14.70;9.90;;;;;;;21.85;33.49;98565.73;108534;1271;22518;-71
2022/05/03 09:45:39;;;;;;;19.40;11.90;;;;;;;21.72;34.13;98568.20;108527;1271;22859;-71
2022/05/03 09:48:06;;;;;;;18.40;10.70;;;;;;;21.61;33.59;98567.92;108526;1271;25264;-72
2022/05/03 09:50:39;;;;;;;20.30;11.50;;;;;;;21.58;34.03;98569.79;108587;1271;22679;-71
2022/05/03 09:53:14;;;;;;;18.20;11.90;;;;;;;21.53;34.11;98567.20;108539;1271;25461;-72
2022/05/03 09:55:43;;;;;;;16.10;11.00;;;;;;;21.47;34.06;98563.83;108530;1271;22537;-72
2022/05/03 09:58:12;;;;;;;17.80;10.60;;;;;;;21.35;33.83;98563.38;108524;1271;22687;-79
2022/05/03 10:00:43;;;;;;;17.10;10.70;;;;;;;21.27;34.05;98562.46;108541;1271;22525;-73
2022/05/03 10:03:11;;;;;;;16.50;9.70;;;;;;;21.33;34.06;98560.05;108464;1271;22622;-72
2022/05/03 10:05:41;;;;;;;19.70;10.50;;;;;;;21.39;34.03;98558.01;108403;1271;23312;-73
2022/05/03 10:08:16;;;;;;;14.30;10.60;;;;;;;21.31;33.43;98557.77;108366;1271;25116;-73
2022/05/03 10:10:44;;;;;;;16.70;9.60;;;;;;;21.31;33.98;98559.31;108330;1271;22565;-73
2022/05/03 10:13:13;;;;;;;13.20;8.00;;;;;;;21.48;34.09;98561.05;108375;1271;22606;-72
2022/05/03 10:21:40;;;;;;;13.90;8.60;;;;;;;21.28;33.40;98553.36;107936;1280;22860;-72
2022/05/03 10:24:09;;;;;;;15.90;8.30;;;;;;;21.29;33.24;98551.09;108205;1274;22528;-74
2022/05/03 10:27:06;;;;;;;12.40;8.40;;;;;;;21.33;33.18;98549.10;108300;1274;25283;-72
2022/05/03 10:29:35;;;;;;;14.40;9.60;;;;;;;21.18;33.49;98545.05;108218;1274;22656;-72
2022/05/03 10:32:08;;;;;;;12.30;8.40;;;;;;;21.01;33.17;98542.48;108281;1274;22547;-72
2022/05/03 10:34:53;;;;;;;8.50;7.00;;;;;;;20.88;32.75;98545.50;108276;1274;23684;-72
2022/05/03 10:37:25;;;;;;;9.50;6.20;;;;;;;20.82;31.96;98542.66;108313;1274;22721;-72
2022/05/03 10:40:12;;;;;;;9.40;6.70;;;;;;;20.71;32.05;98543.98;108273;1274;22581;-73
2022/05/03 10:42:39;;;;;;;11.10;6.80;;;;;;;20.80;32.32;98537.34;108284;1274;22541;-75
2022/05/03 10:45:09;;;;;;;11.40;7.60;;;;;;;21.01;32.74;98538.02;108310;1274;22642;-74
2022/05/03 10:47:59;;;;;;;10.50;7.00;;;;;;;21.24;32.53;98539.91;108319;1274;22633;-71
2022/05/03 10:50:36;;;;;;;10.20;7.10;;;;;;;21.49;32.23;98542.44;108270;1274;22557;-79
2022/05/03 10:53:05;;;;;;;9.20;6.50;;;;;;;21.70;31.37;98532.10;108333;1274;22545;-72
2022/05/03 10:55:40;;;;;;;11.70;7.50;;;;;;;21.98;31.75;98529.16;108294;1274;22844;-73
2022/05/03 10:58:25;;;;;;;10.40;7.00;;;;;;;22.33;31.37;98527.61;108292;1274;22532;-75
2022/05/03 11:01:09;;;;;;;12.60;8.60;;;;;;;22.62;31.49;98527.06;108264;1273;22691;-72
2022/05/03 11:03:48;;;;;;;9.70;7.30;;;;;;;22.82;31.27;98525.02;108302;1274;22547;-72
2022/05/03 11:06:25;;;;;;;9.90;7.30;;;;;;;22.95;30.91;98524.45;108271;1273;22556;-73
2022/05/03 11:11:39;;;;;;;48.40;42.30;;;;;;;22.98;30.57;98519.25;108270;1274;23850;-73
2022/05/03 11:14:21;;;;;;;12.30;10.40;;;;;;;23.05;30.57;98515.63;108240;1274;22566;-74
2022/05/03 11:17:04;;;;;;;14.60;7.70;;;;;;;23.15;30.51;98514.55;108297;1274;22635;-72
2022/05/03 11:19:52;;;;;;;10.40;7.00;;;;;;;23.21;29.80;98511.45;108327;1274;22634;-72
2022/05/03 11:22:21;;;;;;;10.90;6.70;;;;;;;23.32;29.99;98510.29;108297;1274;22544;-73
2022/05/03 11:24:51;;;;;;;11.30;7.80;;;;;;;23.30;30.07;98510.47;108335;1274;22542;-73
2022/05/03 11:27:19;;;;;;;9.00;7.70;;;;;;;23.30;29.31;98512.77;108342;1274;22531;-71
2022/05/03 11:29:47;;;;;;;15.00;8.80;;;;;;;23.06;29.22;98512.00;108338;1274;22650;-74
2022/05/03 11:32:16;;;;;;;12.30;8.20;;;;;;;22.89;29.55;98508.70;108341;1274;24302;-74
2022/05/03 11:34:44;;;;;;;12.00;8.00;;;;;;;22.83;29.73;98507.75;108366;1274;22744;-73
2022/05/03 11:37:11;;;;;;;13.30;7.90;;;;;;;22.74;29.66;98506.34;108315;1274;22578;-70
2022/05/03 11:39:38;;;;;;;9.40;7.50;;;;;;;22.57;28.88;98504.61;108245;1274;22999;-71
2022/05/03 11:42:09;;;;;;;13.20;6.60;;;;;;;22.42;28.89;98496.91;108281;1274;22698;-70
2022/05/03 11:44:43;;;;;;;7.60;6.00;;;;;;;22.28;29.69;98501.04;108226;1274;22561;-73
2022/05/03 11:47:11;;;;;;;8.60;6.40;;;;;;;22.19;29.83;98500.00;108265;1274;22545;-71
2022/05/03 11:49:38;;;;;;;7.90;6.20;;;;;;;22.27;30.30;98499.75;108328;1274;22528;-71
2022/05/03 11:57:43;;;;;;;8.90;6.60;;;;;;;22.71;29.71;98495.95;108342;1274;22828;-73
2022/05/03 12:00:15;;;;;;;11.60;8.40;;;;;;;22.92;29.40;98489.45;108346;1274;22652;-73
2022/05/03 12:02:44;;;;;;;11.40;7.30;;;;;;;23.19;29.16;98491.00;108344;1274;23169;-74
2022/05/03 12:05:19;;;;;;;7.70;6.30;;;;;;;23.47;29.17;98489.40;108309;1274;22681;-73
2022/05/03 12:07:57;;;;;;;23.30;15.50;;;;;;;23.58;28.99;98485.30;108312;1274;22537;-73
2022/05/03 12:10:37;;;;;;;10.50;7.10;;;;;;;23.76;29.07;98483.95;108469;1274;22581;-73
2022/05/03 12:13:16;;;;;;;11.30;8.50;;;;;;;23.97;28.81;98487.58;108279;1274;22554;-74
2022/05/03 12:15:57;;;;;;;9.80;7.60;;;;;;;24.18;28.54;98489.20;108259;1274;22623;-73